Montclair, NJ (07043)

10:13 AM EDT on July 28, 2016 (GMT -0400)
Crestmont Road | | Change Station

Elev 564 ft 40.84 °N, 74.22 °W | Updated 5 seconds ago

Clear
Clear
82.3 °F
Feels Like 85 °F
N
0.0
Wind Variable Wind from North
Gusts 0.0 mph

Today
High -- | Low -- °F
--% Chance of Precip.
Yesterday
High -- | Low -- °F
Precip. -- in
Pressure 29.94 in
Visibility 10.0 miles
Clouds Clear
Heat Index 85 °F
Dew Point 66 °F
Humidity 59%
Rainfall 0.00 in
Snow Depth Not available.
5:49 AM 8:16 PM
Waning Crescent, 32% visible
METAR KCDW 281353Z AUTO 00000KT 10SM CLR 29/19 A2993 RMK AO2 SLP138 T02890194 TSNO $
Pressure 29.94 in
Visibility 10.0 miles
Clouds Clear
Heat Index 85 °F
Dew Point 66 °F
Humidity 59%
Rainfall 0.00 in
Snow Depth Not available.
5:49 AM 8:16 PM
Waning Crescent, 32% visible
METAR KCDW 281353Z AUTO 00000KT 10SM CLR 29/19 A2993 RMK AO2 SLP138 T02890194 TSNO $

10-Day Weather Forecast

Almanac

Astronomy

Jul. 28, 2016 Rise Set
Actual Time
Civil Twilight
Nautical Twilight
Astronomical Twilight
Moon
Length of Visible Light
Length of Day
Tomorrow will be .
, % of the Moon is Illuminated

Today's Extremes

State Highs State Lows

Community

WunderPhotos

Upload Photos

1,928,117 photos uploaded!

WunderBlog® & News

Nearby

Air Quality

  Air Quality AQ Index Pollutant
Not available.

Snow Depth

Station Depth Elevation

Earthquake Activity

City Distance Mag. Time & Date
Minimum magnitude displayed is 2.5.

Coastal Water Temperatures

Place Temperature

Stations

Nearby Weather Stations

Station Location Temp. Windchill Dew Point Humidity Wind Precip. Elev Updated Type
                   

Watches & Warnings

There are currently no watches in effect.